Time;durP1;ratioP1;P1;durP2;ratioP2;P2;SDS_P1;SDS_P2;PMS_P1;PMS_P2;Temp;Humidity;BMP_temperature;BMP_pressure;BME280_temperature;BME280_humidity;BME280_pressure;Samples;Min_cycle;Max_cycle;Signal;HPM_P1;HPM_P2
2021/11/14 00:03:53;;;;;;;12.88;11.65;;;;;;;8.73;87.41;100162.53;10242559;28;22396;-58
2021/11/14 00:08:55;;;;;;;11.13;9.85;;;;;;;8.75;87.11;100172.06;10240369;28;20636;-59
2021/11/14 00:13:58;;;;;;;11.82;10.55;;;;;;;8.71;87.40;100165.28;10262114;28;20050;-59
2021/11/14 00:19:00;;;;;;;11.52;10.32;;;;;;;8.70;87.35;100162.75;10286874;28;20046;-58
2021/11/14 00:24:04;;;;;;;12.52;11.32;;;;;;;8.70;87.62;100158.28;10292522;28;20076;-59
2021/11/14 00:29:06;;;;;;;13.75;11.93;;;;;;;8.77;87.18;100166.66;10289515;28;20100;-59
2021/11/14 00:34:08;;;;;;;12.52;11.23;;;;;;;8.73;87.11;100171.31;10298551;28;20046;-58
2021/11/14 00:39:16;;;;;;;11.75;10.65;;;;;;;8.78;87.10;100173.63;10291606;28;20074;-59
2021/11/14 00:44:18;;;;;;;11.88;9.93;;;;;;;8.79;86.97;100177.97;10292209;28;20047;-58
2021/11/14 00:49:20;;;;;;;10.80;9.75;;;;;;;8.78;87.38;100178.94;10284528;28;20047;-58
2021/11/14 00:54:22;;;;;;;9.80;8.88;;;;;;;8.78;87.22;100177.16;10285470;28;20061;-58
2021/11/14 00:59:23;;;;;;;10.73;9.68;;;;;;;8.81;87.21;100179.56;10290398;28;20057;-58
2021/11/14 01:04:25;;;;;;;12.10;10.90;;;;;;;8.80;87.56;100187.66;10290832;28;20066;-59
2021/11/14 01:09:26;;;;;;;10.07;9.18;;;;;;;8.81;87.51;100187.53;10281901;28;20133;-59
2021/11/14 01:14:28;;;;;;;11.57;10.43;;;;;;;8.85;87.37;100199.59;10284238;28;20104;-58
2021/11/14 01:19:29;;;;;;;12.93;11.55;;;;;;;8.82;87.35;100197.16;10284981;28;20070;-58
2021/11/14 01:24:31;;;;;;;11.93;10.73;;;;;;;8.81;87.34;100203.47;10296655;28;20054;-58
2021/11/14 01:29:32;;;;;;;12.75;11.48;;;;;;;8.82;87.28;100205.13;10293958;28;20065;-57
2021/11/14 01:34:34;;;;;;;14.45;12.82;;;;;;;8.83;86.98;100212.16;10291464;28;20061;-57
2021/11/14 01:39:35;;;;;;;14.77;12.50;;;;;;;8.80;87.10;100212.38;10286646;28;20097;-58
2021/11/14 01:44:37;;;;;;;14.70;13.15;;;;;;;8.75;87.20;100206.56;10290275;28;20070;-58
2021/11/14 01:49:39;;;;;;;13.98;12.57;;;;;;;8.80;87.23;100215.03;10282457;28;20120;-58
2021/11/14 01:54:40;;;;;;;16.73;13.75;;;;;;;8.78;87.09;100218.75;10290628;28;20066;-57
2021/11/14 01:59:42;;;;;;;16.08;13.88;;;;;;;8.74;87.22;100223.44;10289004;28;20046;-57
2021/11/14 02:04:45;;;;;;;15.25;12.80;;;;;;;8.72;87.12;100220.06;10288949;28;20120;-57
2021/11/14 02:09:47;;;;;;;17.38;15.05;;;;;;;8.72;86.91;100216.53;10284084;28;20054;-58
2021/11/14 02:14:49;;;;;;;16.67;13.45;;;;;;;8.72;86.87;100220.06;10281697;28;20480;-57
2021/11/14 02:19:52;;;;;;;16.88;13.43;;;;;;;8.73;87.18;100224.41;10287568;28;20714;-57
2021/11/14 02:24:54;;;;;;;18.15;14.82;;;;;;;8.75;87.18;100230.47;10287590;28;20102;-57
2021/11/14 02:29:55;;;;;;;17.98;14.77;;;;;;;8.72;87.18;100230.69;10283580;28;20214;-59
2021/11/14 02:34:56;;;;;;;18.80;15.43;;;;;;;8.68;87.43;100229.22;10287743;28;20561;-58
2021/11/14 02:39:58;;;;;;;17.13;14.25;;;;;;;8.71;87.17;100234.28;10288737;28;20046;-58
2021/11/14 02:45:00;;;;;;;18.42;13.98;;;;;;;8.64;87.49;100222.41;10283229;28;20066;-58
2021/11/14 02:50:04;;;;;;;16.80;13.35;;;;;;;8.69;87.27;100230.88;10286124;28;20697;-58
2021/11/14 02:55:08;;;;;;;16.38;12.98;;;;;;;8.72;87.20;100237.78;10285956;28;20144;-59
2021/11/14 03:00:16;;;;;;;15.02;11.80;;;;;;;8.68;86.92;100234.50;10283051;28;20556;-57
2021/11/14 03:05:20;;;;;;;15.07;12.32;;;;;;;8.72;86.88;100241.31;10285861;28;20161;-57
2021/11/14 03:10:27;;;;;;;14.00;11.07;;;;;;;8.76;86.80;100245.41;10288569;28;20132;-57
2021/11/14 03:15:33;;;;;;;14.52;11.73;;;;;;;8.76;86.86;100250.72;10240157;28;20055;-57
2021/11/14 03:20:41;;;;;;;12.18;10.90;;;;;;;8.78;86.39;100251.47;10242984;28;20142;-57
2021/11/14 03:25:43;;;;;;;11.60;10.10;;;;;;;8.75;86.35;100243.72;10238101;28;20078;-57
2021/11/14 03:30:45;;;;;;;12.25;9.63;;;;;;;8.81;86.42;100268.94;10236960;28;20063;-57
2021/11/14 03:35:51;;;;;;;11.18;9.35;;;;;;;8.80;85.99;100265.47;10245161;28;20130;-57
2021/11/14 03:40:52;;;;;;;10.30;8.90;;;;;;;8.78;86.44;100271.84;10243725;28;20298;-56
2021/11/14 03:45:55;;;;;;;9.65;8.65;;;;;;;8.77;86.24;100276.31;10237997;28;20178;-57
2021/11/14 03:50:57;;;;;;;10.30;8.88;;;;;;;8.83;86.21;100280.31;10241997;28;20050;-58
2021/11/14 03:55:58;;;;;;;10.27;9.18;;;;;;;8.80;86.08;100278.72;10242892;28;20074;-57
2021/11/14 04:01:04;;;;;;;8.07;7.30;;;;;;;8.87;86.05;100283.59;10232551;28;20067;-57
2021/11/14 04:06:06;;;;;;;12.23;9.00;;;;;;;8.91;85.67;100291.22;10230452;28;20481;-57
2021/11/14 04:11:08;;;;;;;8.40;7.60;;;;;;;8.90;85.85;100291.31;10232208;28;20535;-58
2021/11/14 04:16:10;;;;;;;9.48;7.75;;;;;;;8.89;85.89;100289.63;10233738;28;20710;-58
2021/11/14 04:21:12;;;;;;;7.60;6.68;;;;;;;8.91;85.54;100285.91;10222778;28;20117;-58
2021/11/14 04:26:13;;;;;;;8.18;7.38;;;;;;;8.94;85.36;100298.94;10239527;28;20535;-57
2021/11/14 04:31:15;;;;;;;7.18;6.47;;;;;;;8.91;85.23;100295.69;10231930;28;20134;-57
2021/11/14 04:36:16;;;;;;;7.05;6.45;;;;;;;8.85;85.03;100299.63;10268690;28;20113;-58
2021/11/14 04:41:18;;;;;;;6.70;6.10;;;;;;;8.90;85.44;100305.44;10276108;28;20077;-58
2021/11/14 04:46:19;;;;;;;6.28;5.70;;;;;;;8.92;85.21;100311.50;10277836;28;20140;-58
2021/11/14 04:51:21;;;;;;;7.13;6.43;;;;;;;8.91;85.20;100311.63;10275312;28;20499;-57
2021/11/14 04:56:23;;;;;;;7.32;6.63;;;;;;;8.93;84.88;100320.31;10278043;28;20062;-57
2021/11/14 05:01:24;;;;;;;6.47;5.90;;;;;;;8.92;84.89;100315.97;10270313;28;20723;-58
2021/11/14 05:06:26;;;;;;;6.63;6.03;;;;;;;8.92;85.00;100323.94;10240758;28;20061;-59
2021/11/14 05:11:27;;;;;;;6.28;5.68;;;;;;;8.95;84.71;100321.06;10245407;28;20551;-58
2021/11/14 05:16:29;;;;;;;6.90;6.30;;;;;;;8.96;84.63;100333.34;10242337;28;20570;-58
2021/11/14 05:21:31;;;;;;;6.75;6.15;;;;;;;9.00;84.84;100343.63;10279130;23;20126;-65
2021/11/14 05:26:34;;;;;;;6.75;6.15;;;;;;;9.00;84.47;100340.16;10329620;28;20647;-64
2021/11/14 05:31:35;;;;;;;8.52;6.65;;;;;;;9.04;84.87;100352.25;10335037;28;20132;-65
2021/11/14 05:36:37;;;;;;;6.88;6.18;;;;;;;9.03;84.66;100355.84;10333957;28;20046;-65
2021/11/14 05:41:38;;;;;;;6.72;6.03;;;;;;;9.01;84.55;100363.09;10297313;28;20054;-64
2021/11/14 05:46:40;;;;;;;7.68;6.88;;;;;;;9.00;84.59;100372.00;10303784;28;20113;-65
2021/11/14 05:51:42;;;;;;;8.18;7.35;;;;;;;8.98;84.70;100376.59;10310533;28;20137;-64
2021/11/14 05:56:43;;;;;;;8.30;7.50;;;;;;;8.99;84.70;100376.47;10317781;28;20046;-64
2021/11/14 06:01:50;;;;;;;8.45;7.38;;;;;;;8.98;84.57;100395.19;10327939;28;20058;-64
2021/11/14 06:06:51;;;;;;;7.80;7.03;;;;;;;8.96;84.88;100391.75;10333983;28;20069;-64
2021/11/14 06:11:54;;;;;;;8.75;7.95;;;;;;;8.92;85.23;100400.94;10335571;28;20097;-64
2021/11/14 06:16:56;;;;;;;8.07;7.32;;;;;;;8.92;85.23;100398.28;10334375;28;25994;-64
2021/11/14 06:21:57;;;;;;;9.23;8.38;;;;;;;8.95;85.08;100406.03;10293725;28;1077024;-65
2021/11/14 06:26:59;;;;;;;8.93;8.00;;;;;;;8.97;84.95;100415.56;10297683;28;20066;-65
2021/11/14 06:32:01;;;;;;;8.55;7.75;;;;;;;8.97;84.73;100422.69;10295955;28;20057;-64
2021/11/14 06:37:03;;;;;;;8.48;7.18;;;;;;;8.99;84.91;100436.69;10307048;28;20077;-65
2021/11/14 06:42:07;;;;;;;8.30;7.60;;;;;;;9.00;84.64;100449.84;10316952;28;20128;-65
2021/11/14 06:47:08;;;;;;;8.38;7.57;;;;;;;9.03;84.44;100462.91;10338020;28;20108;-66
2021/11/14 06:52:11;;;;;;;9.45;8.55;;;;;;;9.05;84.45;100460.13;10337522;28;20569;-66
2021/11/14 06:57:12;;;;;;;8.38;7.68;;;;;;;9.04;84.56;100463.78;10338951;28;20419;-64
2021/11/14 07:02:14;;;;;;;7.95;7.25;;;;;;;9.07;84.31;100474.19;10332077;28;20554;-64
2021/11/14 07:07:16;;;;;;;7.75;7.05;;;;;;;9.09;84.28;100476.72;10336323;28;20045;-63
2021/11/14 07:12:18;;;;;;;9.20;8.30;;;;;;;9.10;84.03;100484.59;10337583;28;20054;-63
2021/11/14 07:17:22;;;;;;;8.30;7.60;;;;;;;9.15;84.12;100490.41;10332690;28;20193;-64
2021/11/14 07:22:23;;;;;;;8.63;7.82;;;;;;;9.16;83.95;100500.09;10301457;28;20153;-64
2021/11/14 07:27:25;;;;;;;9.18;8.32;;;;;;;9.24;83.87;100499.53;10295059;28;20058;-65
2021/11/14 07:32:26;;;;;;;8.95;8.15;;;;;;;9.27;83.39;100506.44;10296829;28;20644;-64
2021/11/14 07:37:28;;;;;;;8.65;7.88;;;;;;;9.28;83.44;100521.44;10338764;28;20121;-65
2021/11/14 07:42:30;;;;;;;9.15;7.50;;;;;;;9.28;83.48;100524.09;10333274;28;20056;-64
2021/11/14 07:47:31;;;;;;;8.38;7.57;;;;;;;9.33;83.22;100532.56;10332489;28;20053;-65
2021/11/14 07:52:33;;;;;;;8.15;7.38;;;;;;;9.28;83.55;100540.88;10323107;28;20046;-65
2021/11/14 07:57:35;;;;;;;7.68;6.90;;;;;;;9.33;83.39;100541.38;10279948;28;20538;-64
2021/11/14 08:02:38;;;;;;;6.07;5.50;;;;;;;9.36;83.45;100540.31;10271567;28;20054;-65
2021/11/14 08:07:41;;;;;;;7.78;7.07;;;;;;;9.42;83.15;100544.34;10269821;28;20072;-66
2021/11/14 08:12:43;;;;;;;8.05;7.35;;;;;;;9.44;83.05;100551.25;10271927;28;20053;-66
2021/11/14 08:17:45;;;;;;;9.68;7.38;;;;;;;9.45;82.99;100558.25;10273633;28;20058;-65
2021/11/14 08:22:47;;;;;;;8.73;7.90;;;;;;;9.45;82.78;100552.13;10275965;28;21698;-65
2021/11/14 08:27:49;;;;;;;8.45;7.65;;;;;;;9.44;82.82;100545.94;10297963;28;20132;-66
2021/11/14 08:32:51;;;;;;;8.43;7.63;;;;;;;9.49;83.00;100549.13;10330541;28;20807;-66
2021/11/14 08:37:57;;;;;;;8.85;7.95;;;;;;;9.57;82.62;100551.22;10329873;28;20616;-66
2021/11/14 08:43:03;;;;;;;8.80;7.93;;;;;;;9.64;82.40;100554.31;10336741;28;20046;-66
2021/11/14 08:48:05;;;;;;;8.40;7.60;;;;;;;9.73;82.22;100561.63;10325247;28;20444;-66
2021/11/14 08:53:07;;;;;;;9.77;8.88;;;;;;;9.79;81.98;100566.50;10286682;28;20137;-69
2021/11/14 08:58:08;;;;;;;9.02;8.23;;;;;;;9.83;81.28;100575.94;10320924;28;20252;-66
2021/11/14 09:03:10;;;;;;;8.52;7.72;;;;;;;9.85;81.46;100582.00;10319594;28;20495;-66
2021/11/14 09:08:12;;;;;;;9.43;8.63;;;;;;;9.99;81.27;100577.50;10319019;28;20498;-66
2021/11/14 09:13:15;;;;;;;8.10;7.40;;;;;;;10.06;81.19;100578.75;10321599;28;20786;-66
2021/11/14 09:18:17;;;;;;;9.43;8.52;;;;;;;10.13;80.44;100590.59;10323746;28;20077;-64
2021/11/14 09:23:19;;;;;;;9.40;8.50;;;;;;;10.23;80.17;100601.44;10336120;28;20082;-67
2021/11/14 09:28:20;;;;;;;9.50;8.60;;;;;;;10.32;79.62;100599.91;10293985;28;20164;-64
2021/11/14 09:33:24;;;;;;;9.52;8.52;;;;;;;10.37;79.64;100601.31;10295410;28;20070;-64
2021/11/14 09:38:26;;;;;;;10.53;9.37;;;;;;;10.42;79.13;100611.63;10291192;28;20458;-64
2021/11/14 09:43:28;;;;;;;10.90;9.90;;;;;;;10.51;78.77;100621.56;10296016;28;20799;-70
2021/11/14 09:48:30;;;;;;;11.00;9.98;;;;;;;10.62;78.18;100623.44;10293360;28;20053;-65
2021/11/14 09:53:36;;;;;;;8.80;8.00;;;;;;;10.64;77.96;100632.13;10305504;28;20054;-64
2021/11/14 09:58:38;;;;;;;9.88;8.98;;;;;;;10.64;78.08;100632.13;10333317;28;21602;-64
2021/11/14 10:03:40;;;;;;;10.02;8.90;;;;;;;10.63;78.59;100629.59;10334711;28;20249;-64
2021/11/14 10:08:44;;;;;;;10.20;9.20;;;;;;;10.71;78.08;100632.53;10335611;28;20061;-64
2021/11/14 10:13:49;;;;;;;9.60;8.70;;;;;;;10.77;78.23;100632.09;10305970;28;20060;-64
2021/11/14 10:18:52;;;;;;;;;;;;;;;10.86;77.74;100631.38;10276659;28;20058;-63
2021/11/14 10:23:53;;;;;;;9.70;8.80;;;;;;;11.11;77.04;100641.03;10288236;28;20043;-63
2021/11/14 10:29:00;;;;;;;9.82;8.82;;;;;;;11.39;76.28;100643.38;10323666;28;20132;-64
2021/11/14 10:34:02;;;;;;;9.60;8.65;;;;;;;11.47;75.43;100631.16;10287232;28;20061;-64
2021/11/14 10:39:11;;;;;;;9.80;8.80;;;;;;;11.53;74.82;100635.16;10290819;28;20156;-64
2021/11/14 10:44:16;;;;;;;9.65;8.75;;;;;;;11.55;75.28;100633.19;10313365;28;20054;-66
2021/11/14 10:49:21;;;;;;;10.25;9.25;;;;;;;11.65;74.52;100628.00;10317050;28;20068;-64
2021/11/14 10:54:26;;;;;;;;;;;;;;;11.63;74.50;100636.13;10333744;28;20100;-65
2021/11/14 10:59:27;;;;;;;10.00;9.07;;;;;;;11.63;74.44;100630.81;10315443;28;19929;-64
2021/11/14 11:04:29;;;;;;;9.85;9.05;;;;;;;11.56;74.27;100637.56;10297430;28;20062;-64
2021/11/14 11:09:33;;;;;;;9.98;9.07;;;;;;;11.49;74.81;100644.34;10274729;28;20049;-64
2021/11/14 11:14:36;;;;;;;;;;;;;;;11.44;75.40;100651.84;10304305;28;20299;-64
2021/11/14 11:19:37;;;;;;;10.07;9.07;;;;;;;11.43;75.47;100647.50;10272187;28;20378;-65
2021/11/14 11:24:53;;;;;;;10.65;9.65;;;;;;;11.40;75.28;100647.75;10259364;23;20102;-58
2021/11/14 11:29:56;;;;;;;11.07;10.10;;;;;;;11.44;75.37;100643.84;10245589;28;21063;-55
2021/11/14 11:34:59;;;;;;;10.45;9.43;;;;;;;11.38;75.19;100626.53;10246574;28;20109;-56
2021/11/14 11:40:05;;;;;;;10.35;9.35;;;;;;;11.58;74.91;100635.63;10243843;28;20077;-56
2021/11/14 11:45:08;;;;;;;11.10;10.00;;;;;;;11.50;75.33;100636.22;10248621;28;20413;-57
2021/11/14 11:50:10;;;;;;;11.15;10.05;;;;;;;11.55;74.97;100649.19;10240583;28;20061;-57
2021/11/14 11:55:23;;;;;;;10.32;9.40;;;;;;;11.57;75.33;100647.25;10243173;28;20258;-56
2021/11/14 12:00:26;;;;;;;9.65;8.70;;;;;;;11.51;75.51;100653.06;10295246;28;20120;-57
2021/11/14 12:05:27;;;;;;;10.40;9.40;;;;;;;11.47;76.02;100652.47;10258118;28;20409;-56
2021/11/14 12:10:28;;;;;;;9.68;8.77;;;;;;;11.45;75.76;100643.75;10240397;28;20059;-57
2021/11/14 12:15:33;;;;;;;10.82;9.82;;;;;;;11.50;75.78;100651.38;10238924;28;20137;-57
2021/11/14 12:20:52;;;;;;;9.55;8.65;;;;;;;11.44;76.20;100652.72;10246390;28;20084;-57
2021/11/14 12:25:58;;;;;;;10.73;9.73;;;;;;;11.44;76.27;100641.19;10261902;28;20043;-57
2021/11/14 12:31:10;;;;;;;10.95;9.88;;;;;;;11.56;76.04;100653.56;10302805;28;20119;-59
2021/11/14 12:36:33;;;;;;;10.55;9.55;;;;;;;11.68;75.48;100663.28;10296783;28;20105;-56
2021/11/14 12:41:35;;;;;;;10.02;8.68;;;;;;;11.75;74.82;100663.63;10281927;28;20054;-57
2021/11/14 12:46:37;;;;;;;9.90;8.90;;;;;;;11.61;74.69;100664.72;10251278;28;20057;-57
2021/11/14 12:51:39;;;;;;;10.68;9.68;;;;;;;11.68;74.59;100668.59;10241446;28;20146;-57
2021/11/14 12:56:44;;;;;;;8.75;7.95;;;;;;;11.71;74.86;100664.00;10299384;28;20191;-56
2021/11/14 13:01:52;;;;;;;11.82;10.70;;;;;;;11.70;74.95;100664.97;10244657;28;20255;-56
2021/11/14 13:06:55;;;;;;;11.05;9.85;;;;;;;11.71;74.61;100667.53;10244481;28;20054;-56
2021/11/14 13:12:05;;;;;;;13.80;9.82;;;;;;;11.66;74.55;100678.56;10243349;28;20106;-57
2021/11/14 13:17:10;;;;;;;10.23;9.15;;;;;;;11.70;74.80;100678.31;10245074;28;20059;-57
2021/11/14 13:22:15;;;;;;;13.27;12.07;;;;;;;11.65;74.84;100676.84;10240150;28;20076;-56
2021/11/14 13:27:18;;;;;;;10.05;9.07;;;;;;;11.66;74.78;100669.69;10246728;28;20511;-58
2021/11/14 13:32:28;;;;;;;10.88;9.88;;;;;;;11.71;74.46;100666.66;10248972;28;20080;-58
2021/11/14 13:37:37;;;;;;;9.25;8.35;;;;;;;11.67;74.43;100664.22;10233737;28;20120;-57
2021/11/14 13:42:45;;;;;;;9.82;8.82;;;;;;;11.77;74.14;100677.69;10248518;28;20047;-56
2021/11/14 13:47:48;;;;;;;8.90;8.10;;;;;;;11.66;74.47;100675.00;10245598;28;20097;-56
2021/11/14 13:52:50;;;;;;;10.27;9.25;;;;;;;11.60;75.05;100692.34;10243763;28;20433;-57
2021/11/14 13:57:52;;;;;;;11.00;9.90;;;;;;;11.57;75.54;100692.56;10234222;28;20158;-57
2021/11/14 14:02:54;;;;;;;11.52;10.43;;;;;;;11.53;75.71;100682.28;10255021;28;20554;-56
2021/11/14 14:07:58;;;;;;;9.98;9.07;;;;;;;11.61;75.62;100688.72;10250966;28;20531;-57
2021/11/14 14:12:59;;;;;;;10.40;9.40;;;;;;;11.77;74.86;100690.16;10244287;28;20094;-58
2021/11/14 14:18:13;;;;;;;10.70;9.68;;;;;;;12.12;73.33;100673.22;10249789;28;21136;-58
2021/11/14 14:23:15;;;;;;;10.40;9.40;;;;;;;13.25;69.81;100687.03;10249773;28;20130;-58
2021/11/14 14:28:21;;;;;;;9.80;8.80;;;;;;;16.43;58.72;100687.63;10252209;28;20150;-57
2021/11/14 14:33:29;;;;;;;9.38;8.48;;;;;;;18.60;51.09;100682.53;10243889;28;20488;-60
2021/11/14 14:38:36;;;;;;;9.77;8.85;;;;;;;19.36;47.88;100691.34;10228207;28;20079;-59
2021/11/14 14:43:41;;;;;;;7.28;6.68;;;;;;;19.47;47.42;100694.69;10250390;28;20166;-60
2021/11/14 14:48:47;;;;;;;7.95;7.25;;;;;;;19.61;46.76;100696.72;10245927;28;20109;-60
2021/11/14 14:53:55;;;;;;;8.43;7.22;;;;;;;18.19;49.21;100693.19;10247653;28;20059;-59
2021/11/14 14:59:05;;;;;;;8.07;7.38;;;;;;;15.73;55.71;100712.25;10304301;28;20136;-59
2021/11/14 15:04:25;;;;;;;8.18;7.47;;;;;;;14.19;61.27;100715.56;10264452;28;20471;-57
2021/11/14 15:09:41;;;;;;;8.82;8.02;;;;;;;13.41;63.96;100720.53;10263566;28;20047;-59
2021/11/14 15:14:46;;;;;;;9.10;8.20;;;;;;;12.78;66.61;100717.75;10260342;28;20584;-58
2021/11/14 15:20:11;;;;;;;9.60;8.80;;;;;;;12.36;68.57;100721.94;10266231;28;20184;-57
2021/11/14 15:25:18;;;;;;;10.45;9.55;;;;;;;11.90;69.93;100722.91;10264408;28;20046;-57
2021/11/14 15:30:22;;;;;;;11.80;10.65;;;;;;;11.54;71.64;100739.97;10264152;28;20058;-58
2021/11/14 15:35:24;;;;;;;11.85;10.38;;;;;;;11.43;72.47;100735.47;10265296;28;20085;-57
2021/11/14 15:40:27;;;;;;;11.45;10.25;;;;;;;11.26;73.14;100736.72;10265121;28;20611;-58
2021/11/14 15:45:30;;;;;;;11.32;10.18;;;;;;;11.14;73.91;100735.88;10265352;28;20058;-57
2021/11/14 15:50:33;;;;;;;12.52;11.30;;;;;;;11.05;74.02;100732.06;10264453;28;20516;-57
2021/11/14 15:55:37;;;;;;;11.52;8.43;;;;;;;10.91;74.70;100740.22;10264751;28;20523;-57
2021/11/14 16:00:48;;;;;;;11.10;10.00;;;;;;;10.72;75.38;100746.06;10266511;28;20193;-58
2021/11/14 16:05:52;;;;;;;10.45;9.45;;;;;;;10.53;76.23;100747.41;10305695;28;20470;-56
2021/11/14 16:10:53;;;;;;;9.73;8.73;;;;;;;10.30;77.20;100767.66;10300665;28;20125;-56
2021/11/14 16:15:55;;;;;;;10.07;9.10;;;;;;;10.32;77.48;100778.19;10303718;28;20387;-57
2021/11/14 16:20:56;;;;;;;9.20;8.38;;;;;;;10.32;77.82;100780.84;10283539;28;20049;-57
2021/11/14 16:25:58;;;;;;;9.63;8.82;;;;;;;10.36;77.47;100793.03;10250223;28;20202;-57
2021/11/14 16:30:59;;;;;;;9.32;8.32;;;;;;;10.35;77.55;100791.31;10227717;28;20050;-57
2021/11/14 16:36:01;;;;;;;8.73;7.80;;;;;;;10.50;76.83;100789.38;10245493;28;20061;-57
2021/11/14 16:41:05;;;;;;;8.40;7.60;;;;;;;10.42;76.50;100801.41;10219006;28;20090;-56
2021/11/14 16:46:07;;;;;;;8.60;7.80;;;;;;;10.32;77.10;100802.16;10243482;28;20139;-57
2021/11/14 16:51:08;;;;;;;8.55;7.75;;;;;;;10.40;76.87;100810.47;10240128;28;20208;-58
2021/11/14 16:56:10;;;;;;;8.48;7.68;;;;;;;10.22;77.43;100807.25;10228006;28;20075;-56
2021/11/14 17:01:11;;;;;;;28.35;21.25;;;;;;;10.51;81.32;100810.56;10235158;28;20756;-54
2021/11/14 17:06:15;;;;;;;17.13;13.73;;;;;;;10.81;76.89;100819.97;10241573;28;20046;-54
2021/11/14 17:11:17;;;;;;;8.43;7.55;;;;;;;10.92;75.23;100824.50;10243107;28;20160;-64
2021/11/14 17:16:19;;;;;;;9.20;8.30;;;;;;;10.69;75.26;100821.69;10252105;28;20109;-57
2021/11/14 17:21:26;;;;;;;7.43;6.72;;;;;;;10.26;76.26;100827.38;10253824;28;20081;-60
2021/11/14 17:26:28;;;;;;;8.10;7.32;;;;;;;9.81;78.47;100825.13;10254319;28;20173;-57
2021/11/14 17:31:29;;;;;;;8.98;8.10;;;;;;;9.74;78.77;100834.47;10245146;28;20050;-60
2021/11/14 17:36:31;;;;;;;9.40;8.48;;;;;;;9.63;78.82;100826.38;10249874;28;20110;-59
2021/11/14 17:41:32;;;;;;;11.32;10.07;;;;;;;9.47;79.45;100827.41;10288283;28;20181;-58
2021/11/14 17:46:35;;;;;;;9.40;8.40;;;;;;;9.32;80.38;100841.69;10231142;28;20721;-57
2021/11/14 17:51:36;;;;;;;9.07;8.18;;;;;;;9.33;79.94;100846.06;10251580;28;20411;-59
2021/11/14 17:56:38;;;;;;;9.82;8.82;;;;;;;9.31;79.65;100854.13;10254826;28;21677;-56
2021/11/14 18:01:39;;;;;;;9.88;8.88;;;;;;;9.28;79.84;100864.97;10243941;28;20488;-57
2021/11/14 18:06:41;;;;;;;9.77;8.82;;;;;;;9.17;79.93;100878.97;10244511;28;20357;-57
2021/11/14 18:11:43;;;;;;;10.15;9.15;;;;;;;9.28;79.52;100878.25;10251636;28;20125;-56
2021/11/14 18:16:45;;;;;;;10.48;9.48;;;;;;;9.20;79.58;100875.22;10246047;28;20059;-57
2021/11/14 18:21:47;;;;;;;10.02;9.02;;;;;;;9.13;79.51;100888.06;10237066;28;20055;-57
2021/11/14 18:26:48;;;;;;;10.48;9.45;;;;;;;9.21;79.26;100890.22;10243448;28;20055;-59
2021/11/14 18:31:50;;;;;;;10.02;9.02;;;;;;;9.13;79.09;100904.00;10248902;28;20457;-57
2021/11/14 18:36:52;;;;;;;10.63;9.65;;;;;;;9.18;79.06;100923.13;10243277;28;20339;-58
2021/11/14 18:41:54;;;;;;;9.50;8.45;;;;;;;9.22;78.89;100928.25;10246122;28;20057;-59
2021/11/14 18:46:57;;;;;;;10.70;9.57;;;;;;;9.27;78.18;100915.53;10255214;28;21854;-57
2021/11/14 18:51:58;;;;;;;10.43;9.43;;;;;;;9.38;77.67;100915.69;10248599;28;20193;-58
2021/11/14 18:57:03;;;;;;;10.95;9.95;;;;;;;9.45;77.43;100924.97;10247865;28;20501;-59
2021/11/14 19:02:05;;;;;;;12.50;9.67;;;;;;;9.49;77.11;100923.81;10300381;28;20054;-57
2021/11/14 19:07:07;;;;;;;12.68;11.45;;;;;;;9.54;77.47;100928.84;10246833;28;20294;-57
2021/11/14 19:12:08;;;;;;;12.55;11.13;;;;;;;9.51;76.94;100934.34;10245848;28;20460;-56
2021/11/14 19:17:10;;;;;;;12.50;11.40;;;;;;;9.62;76.64;100944.28;10235322;28;20121;-57
2021/11/14 19:22:12;;;;;;;11.50;10.35;;;;;;;9.58;76.63;100948.09;10246004;28;20054;-59
2021/11/14 19:27:13;;;;;;;12.15;10.63;;;;;;;9.55;76.83;100960.63;10246597;28;20129;-57
2021/11/14 19:32:15;;;;;;;12.05;10.70;;;;;;;9.57;76.10;100960.53;10243571;28;20136;-57
2021/11/14 19:37:17;;;;;;;11.85;10.75;;;;;;;9.58;75.85;100977.31;10244990;28;20068;-56
2021/11/14 19:42:18;;;;;;;12.50;10.52;;;;;;;9.64;75.65;100985.75;10249045;28;20054;-57
2021/11/14 19:47:20;;;;;;;12.70;11.40;;;;;;;9.71;75.26;100987.09;10243779;28;20077;-55
2021/11/14 19:52:22;;;;;;;12.45;11.15;;;;;;;9.78;75.77;100994.66;10238171;28;20062;-57
2021/11/14 19:57:23;;;;;;;13.27;11.25;;;;;;;9.72;74.99;100985.25;10240007;28;20323;-58
2021/11/14 20:02:25;;;;;;;12.10;10.90;;;;;;;9.76;74.71;100986.78;10241870;28;20257;-56
2021/11/14 20:07:26;;;;;;;12.57;11.27;;;;;;;9.86;74.96;100987.00;10243102;28;20131;-56
2021/11/14 20:12:28;;;;;;;12.63;10.75;;;;;;;9.85;74.71;100980.00;10240792;28;20074;-59
2021/11/14 20:17:32;;;;;;;13.00;11.70;;;;;;;9.86;74.39;100979.03;10239434;28;20042;-56
2021/11/14 20:22:34;;;;;;;11.90;10.70;;;;;;;9.84;73.94;100987.13;10247048;28;20046;-58
2021/11/14 20:27:36;;;;;;;12.55;11.35;;;;;;;9.65;74.65;100998.13;10244426;28;20058;-58
2021/11/14 20:32:38;;;;;;;15.05;12.57;;;;;;;9.51;75.19;100998.97;10246104;28;20141;-60
2021/11/14 20:37:40;;;;;;;13.40;12.05;;;;;;;9.53;75.05;100993.56;10250419;28;20149;-58
2021/11/14 20:42:42;;;;;;;13.57;12.18;;;;;;;9.56;74.93;100998.69;10261767;28;20139;-58
2021/11/14 20:47:45;;;;;;;14.43;13.02;;;;;;;9.52;75.08;100999.84;10253486;28;20136;-58
2021/11/14 20:52:50;;;;;;;13.02;11.73;;;;;;;9.48;75.48;100998.34;10261047;28;20121;-59
2021/11/14 20:57:52;;;;;;;13.88;12.30;;;;;;;9.53;74.79;101004.19;10257212;28;20073;-58
2021/11/14 21:02:55;;;;;;;14.18;12.65;;;;;;;9.48;75.12;101012.47;10302760;28;20073;-58
2021/11/14 21:07:57;;;;;;;14.98;13.38;;;;;;;9.49;75.26;101005.38;10250139;28;20051;-57
2021/11/14 21:12:59;;;;;;;15.02;13.52;;;;;;;9.49;75.11;101008.03;10254233;28;20058;-59
2021/11/14 21:18:01;;;;;;;14.73;13.30;;;;;;;9.51;75.00;101014.94;10249073;28;20047;-58
2021/11/14 21:23:02;;;;;;;13.52;12.15;;;;;;;9.53;74.82;101013.03;10255540;28;20057;-59
2021/11/14 21:28:04;;;;;;;15.80;14.15;;;;;;;9.56;74.62;101009.31;10244908;28;20055;-58
2021/11/14 21:33:10;;;;;;;17.05;14.65;;;;;;;9.58;74.67;101006.56;10247967;28;20461;-59
2021/11/14 21:38:12;;;;;;;18.90;15.50;;;;;;;9.53;75.24;100998.88;10244931;28;20050;-57
2021/11/14 21:43:16;;;;;;;16.25;14.60;;;;;;;9.53;75.28;101006.84;10250003;28;20073;-57
2021/11/14 21:48:18;;;;;;;16.73;14.98;;;;;;;9.44;75.52;101002.13;10247962;28;20061;-60
2021/11/14 21:53:19;;;;;;;17.48;15.48;;;;;;;9.52;75.10;101002.50;10254144;28;20063;-59
2021/11/14 21:58:21;;;;;;;16.40;14.77;;;;;;;9.53;74.75;100999.75;10248567;28;20899;-58
2021/11/14 22:03:22;;;;;;;15.43;13.80;;;;;;;9.57;74.74;101003.06;10256440;28;20094;-58
2021/11/14 22:08:37;;;;;;;15.63;13.98;;;;;;;9.56;74.29;101004.00;10309279;28;20570;-58
2021/11/14 22:13:41;;;;;;;15.93;14.32;;;;;;;9.43;75.00;101006.59;10308799;28;20123;-58
2021/11/14 22:18:42;;;;;;;15.52;14.02;;;;;;;9.50;74.70;101009.72;10304310;28;20141;-59
2021/11/14 22:23:44;;;;;;;14.18;12.80;;;;;;;9.53;74.64;101007.72;10262726;28;20193;-58
2021/11/14 22:28:45;;;;;;;14.80;13.27;;;;;;;9.53;74.35;100997.09;10270683;28;20149;-58
2021/11/14 22:33:47;;;;;;;14.15;12.63;;;;;;;9.55;74.54;101000.50;10311819;23;20057;-65
2021/11/14 22:38:48;;;;;;;14.20;12.63;;;;;;;9.62;73.94;100997.44;10324984;28;20077;-64
2021/11/14 22:43:50;;;;;;;13.90;12.50;;;;;;;9.58;74.11;100998.59;10317942;28;20371;-64
2021/11/14 22:48:51;;;;;;;14.48;13.07;;;;;;;9.59;73.91;100997.66;10319587;28;20128;-65
2021/11/14 22:53:53;;;;;;;14.73;13.32;;;;;;;9.60;73.97;100996.69;10324322;28;20074;-64
2021/11/14 22:58:54;;;;;;;14.95;13.55;;;;;;;9.59;73.83;101003.81;10316938;28;20077;-64
2021/11/14 23:03:56;;;;;;;14.88;13.38;;;;;;;9.57;74.54;101003.06;10318119;28;20046;-65
2021/11/14 23:09:02;;;;;;;15.00;13.60;;;;;;;9.68;73.60;101013.00;10330895;28;20052;-64
2021/11/14 23:14:06;;;;;;;15.13;13.63;;;;;;;9.72;73.33;101011.84;10330462;28;20061;-65